Time;durP1;ratioP1;P1;durP2;ratioP2;P2;SDS_P1;SDS_P2;PMS_P1;PMS_P2;Temp;Humidity;BMP_temperature;BMP_pressure;BME280_temperature;BME280_humidity;BME280_pressure;Samples;Min_cycle;Max_cycle;Signal;HPM_P1;HPM_P2
2021/07/18 00:01:24;;;;;;;23.52;19.60;;;;;;;;;;5016364;28;20037;-83
2021/07/18 00:03:53;;;;;;;21.98;18.45;;;;;;;;;;5046189;28;20018;-83
2021/07/18 00:06:19;;;;;;;23.83;19.48;;;;;;;;;;5056730;28;20022;-83
2021/07/18 00:08:45;;;;;;;25.48;18.23;;;;;;;;;;5057081;28;20039;-84
2021/07/18 00:11:13;;;;;;;27.77;20.30;;;;;;;;;;5057104;28;20058;-83
2021/07/18 00:13:39;;;;;;;21.23;18.65;;;;;;;;;;5056375;28;20025;-83
2021/07/18 00:16:05;;;;;;;23.48;18.23;;;;;;;;;;5047126;28;20077;-83
2021/07/18 00:18:31;;;;;;;22.10;17.20;;;;;;;;;;5035162;28;20018;-84
2021/07/18 00:20:57;;;;;;;22.65;20.10;;;;;;;;;;5035445;28;20304;-83
2021/07/18 00:23:23;;;;;;;26.52;19.38;;;;;;;;;;5036331;28;20030;-83
2021/07/18 00:25:50;;;;;;;22.10;18.38;;;;;;;;;;5036830;28;20030;-82
2021/07/18 00:28:16;;;;;;;26.38;20.08;;;;;;;;;;5035697;28;20038;-85
2021/07/18 00:30:42;;;;;;;23.10;18.50;;;;;;;;;;5029974;28;20022;-83
2021/07/18 00:33:08;;;;;;;24.20;20.42;;;;;;;;;;5054038;28;20013;-83
2021/07/18 00:35:35;;;;;;;20.40;17.70;;;;;;;;;;5056388;28;20064;-82
2021/07/18 00:38:10;;;;;;;20.00;17.45;;;;;;;;;;5052036;28;20029;-85
2021/07/18 00:40:36;;;;;;;25.05;19.92;;;;;;;;;;5053000;28;20041;-83
2021/07/18 00:43:04;;;;;;;19.90;17.73;;;;;;;;;;5056192;28;20041;-83
2021/07/18 00:45:30;;;;;;;19.17;17.25;;;;;;;;;;5054947;28;20021;-85
2021/07/18 01:19:00;;;;;;;17.75;14.20;;;;;;;;;;5016985;28;20046;-84
2021/07/18 01:21:26;;;;;;;16.30;14.35;;;;;;;;;;5032707;28;20054;-84
2021/07/18 01:23:55;;;;;;;15.10;13.50;;;;;;;;;;5017638;28;20082;-85
2021/07/18 01:26:21;;;;;;;19.25;14.38;;;;;;;;;;5016924;28;20022;-84
2021/07/18 01:28:48;;;;;;;18.08;13.98;;;;;;;;;;5018491;28;20101;-85
2021/07/18 01:31:14;;;;;;;16.83;13.68;;;;;;;;;;5021946;28;20030;-85
2021/07/18 01:33:40;;;;;;;15.63;12.75;;;;;;;;;;5028433;28;20075;-85
2021/07/18 01:36:06;;;;;;;22.00;13.57;;;;;;;;;;5037670;28;20030;-85
2021/07/18 01:38:32;;;;;;;16.50;12.52;;;;;;;;;;5032738;28;20056;-84
2021/07/18 01:40:58;;;;;;;17.75;12.10;;;;;;;;;;5014667;28;20026;-85
2021/07/18 01:43:24;;;;;;;15.20;12.40;;;;;;;;;;5015319;28;20063;-85
2021/07/18 01:45:50;;;;;;;12.95;11.52;;;;;;;;;;5019668;28;20437;-85
2021/07/18 01:48:16;;;;;;;15.07;12.48;;;;;;;;;;5022432;28;20058;-84
2021/07/18 01:50:42;;;;;;;19.42;12.15;;;;;;;;;;5016279;28;20344;-85
2021/07/18 01:53:09;;;;;;;14.52;12.27;;;;;;;;;;5017753;28;20026;-84
2021/07/18 01:55:35;;;;;;;17.08;12.82;;;;;;;;;;5017865;28;20026;-85
2021/07/18 01:58:01;;;;;;;16.15;11.88;;;;;;;;;;5020146;28;20053;-84
2021/07/18 02:00:27;;;;;;;12.88;11.50;;;;;;;;;;5020680;28;20022;-84
2021/07/18 02:02:53;;;;;;;11.73;10.40;;;;;;;;;;5026809;28;20187;-84
2021/07/18 02:05:21;;;;;;;14.48;11.38;;;;;;;;;;5044605;28;20021;-84
2021/07/18 02:07:48;;;;;;;16.10;11.30;;;;;;;;;;5051437;28;20075;-83
2021/07/18 02:10:16;;;;;;;12.90;9.73;;;;;;;;;;5038204;28;20030;-84
2021/07/18 02:12:42;;;;;;;14.07;11.35;;;;;;;;;;5019999;28;20022;-83
2021/07/18 02:15:10;;;;;;;13.95;10.80;;;;;;;;;;5019718;28;20022;-83
2021/07/18 02:17:36;;;;;;;12.23;9.57;;;;;;;;;;5018611;28;20377;-84
2021/07/18 02:20:06;;;;;;;12.73;10.23;;;;;;;;;;5017881;28;20021;-84
2021/07/18 02:22:58;;;;;;;15.95;10.48;;;;;;;;;;5023807;28;20026;-84
2021/07/18 02:25:25;;;;;;;11.43;9.85;;;;;;;;;;5018045;28;20038;-84
2021/07/18 02:27:52;;;;;;;15.05;10.18;;;;;;;;;;5021630;28;20140;-83
2021/07/18 02:30:19;;;;;;;13.07;10.15;;;;;;;;;;5023761;28;20034;-84
2021/07/18 02:32:45;;;;;;;14.55;10.52;;;;;;;;;;5029464;28;20026;-84
2021/07/18 02:35:13;;;;;;;12.43;10.68;;;;;;;;;;5041452;28;20030;-85
2021/07/18 02:37:45;;;;;;;16.38;9.77;;;;;;;;;;5043626;28;20017;-84
2021/07/18 02:40:14;;;;;;;18.92;10.98;;;;;;;;;;5044084;28;20047;-84
2021/07/18 02:42:40;;;;;;;13.75;9.95;;;;;;;;;;5042047;28;20018;-85
2021/07/18 02:45:11;;;;;;;13.70;8.70;;;;;;;;;;5044110;28;20064;-85
2021/07/18 02:47:37;;;;;;;12.20;8.45;;;;;;;;;;5039752;28;20030;-84
2021/07/18 02:50:07;;;;;;;10.55;8.35;;;;;;;;;;5019677;28;20034;-84
2021/07/18 02:52:33;;;;;;;10.05;8.80;;;;;;;;;;5019223;28;20092;-83
2021/07/18 02:54:59;;;;;;;11.85;8.85;;;;;;;;;;5022490;28;20033;-83
2021/07/18 02:57:25;;;;;;;13.63;8.07;;;;;;;;;;5021020;28;20057;-84
2021/07/18 02:59:51;;;;;;;13.75;8.02;;;;;;;;;;5029379;28;20056;-84
2021/07/18 03:02:18;;;;;;;11.45;8.23;;;;;;;;;;5028781;28;20025;-84
2021/07/18 03:04:44;;;;;;;9.93;7.95;;;;;;;;;;5026595;28;20030;-84
2021/07/18 03:07:10;;;;;;;15.38;7.45;;;;;;;;;;5019408;28;20084;-84
2021/07/18 03:09:36;;;;;;;13.35;7.60;;;;;;;;;;5019681;28;20040;-85
2021/07/18 03:12:03;;;;;;;7.90;6.70;;;;;;;;;;5019728;28;20242;-84
2021/07/18 03:14:29;;;;;;;13.75;6.38;;;;;;;;;;5018625;28;20030;-84
2021/07/18 03:16:55;;;;;;;11.65;7.10;;;;;;;;;;5020068;28;20055;-84
2021/07/18 03:19:21;;;;;;;11.75;6.38;;;;;;;;;;5020457;28;20101;-85
2021/07/18 03:21:48;;;;;;;9.10;6.90;;;;;;;;;;5023886;28;20112;-84
2021/07/18 03:24:14;;;;;;;9.80;6.80;;;;;;;;;;5022142;28;20046;-85
2021/07/18 03:26:40;;;;;;;12.63;6.97;;;;;;;;;;5021312;28;20065;-84
2021/07/18 03:29:06;;;;;;;9.18;6.53;;;;;;;;;;5020047;28;20374;-85
2021/07/18 03:31:32;;;;;;;8.63;6.45;;;;;;;;;;5017941;28;20153;-85
2021/07/18 03:33:59;;;;;;;9.90;6.63;;;;;;;;;;5030318;28;20033;-85
2021/07/18 03:36:25;;;;;;;10.30;5.53;;;;;;;;;;5039342;28;20419;-84
2021/07/18 03:38:51;;;;;;;9.48;6.47;;;;;;;;;;5034229;28;20391;-85
2021/07/18 03:41:19;;;;;;;9.48;6.22;;;;;;;;;;5020130;28;20364;-84
2021/07/18 03:43:46;;;;;;;8.27;6.00;;;;;;;;;;5029991;28;20025;-84
2021/07/18 03:46:12;;;;;;;5.85;5.25;;;;;;;;;;5037536;28;20046;-84
2021/07/18 03:48:38;;;;;;;8.32;5.68;;;;;;;;;;5018927;28;20483;-85
2021/07/18 03:51:04;;;;;;;11.32;5.90;;;;;;;;;;5018626;28;20120;-84
2021/07/18 03:53:30;;;;;;;9.45;6.45;;;;;;;;;;5019060;28;20033;-85
2021/07/18 03:55:56;;;;;;;6.60;5.28;;;;;;;;;;5019198;28;20438;-85
2021/07/18 03:58:23;;;;;;;8.68;5.32;;;;;;;;;;5018016;28;20137;-85
2021/07/18 04:00:49;;;;;;;8.52;5.25;;;;;;;;;;5029320;28;20060;-84
2021/07/18 04:03:15;;;;;;;6.38;5.00;;;;;;;;;;5045287;28;20033;-84
2021/07/18 04:05:41;;;;;;;9.13;4.97;;;;;;;;;;5040657;28;20084;-85
2021/07/18 04:08:07;;;;;;;10.10;5.45;;;;;;;;;;5039742;28;20386;-85
2021/07/18 04:10:33;;;;;;;11.40;5.97;;;;;;;;;;5048892;28;20026;-84
2021/07/18 04:12:59;;;;;;;11.20;6.88;;;;;;;;;;5043895;28;20076;-84
2021/07/18 04:15:26;;;;;;;8.35;6.20;;;;;;;;;;5042742;28;20025;-85
2021/07/18 04:17:52;;;;;;;14.27;6.68;;;;;;;;;;5042753;28;20144;-84
2021/07/18 04:20:18;;;;;;;6.80;5.80;;;;;;;;;;5043255;28;20088;-85
2021/07/18 04:22:45;;;;;;;12.32;6.60;;;;;;;;;;5043599;28;20021;-84
2021/07/18 04:25:11;;;;;;;12.25;6.90;;;;;;;;;;5042379;28;20036;-83
2021/07/18 04:27:37;;;;;;;6.55;5.32;;;;;;;;;;5041277;28;20029;-84
2021/07/18 04:30:04;;;;;;;8.80;6.63;;;;;;;;;;5040106;28;20024;-85
2021/07/18 04:32:30;;;;;;;12.10;6.78;;;;;;;;;;5028450;28;20040;-85
2021/07/18 04:34:59;;;;;;;13.20;6.43;;;;;;;;;;5048141;28;20526;-84
2021/07/18 04:37:25;;;;;;;8.10;6.00;;;;;;;;;;5050369;28;20033;-83
2021/07/18 04:39:51;;;;;;;9.25;6.38;;;;;;;;;;5052292;28;20028;-84
2021/07/18 04:42:17;;;;;;;9.55;5.85;;;;;;;;;;5054114;28;20021;-84
2021/07/18 04:44:43;;;;;;;16.13;5.82;;;;;;;;;;5042716;28;20037;-85
2021/07/18 04:47:09;;;;;;;7.75;5.72;;;;;;;;;;5041619;28;20049;-84
2021/07/18 04:49:35;;;;;;;8.40;5.28;;;;;;;;;;5039275;28;20037;-85
2021/07/18 04:52:01;;;;;;;9.75;5.47;;;;;;;;;;5025371;28;20033;-85
2021/07/18 04:54:27;;;;;;;9.57;5.22;;;;;;;;;;5016795;28;20048;-85
2021/07/18 04:56:53;;;;;;;7.90;4.70;;;;;;;;;;5017892;28;20026;-85
2021/07/18 04:59:19;;;;;;;6.90;4.90;;;;;;;;;;5018898;28;20022;-85
2021/07/18 05:01:45;;;;;;;8.43;4.68;;;;;;;;;;5017005;23;20601;-80
2021/07/18 05:04:11;;;;;;;11.70;4.93;;;;;;;;;;5013268;28;20052;-80
2021/07/18 05:06:37;;;;;;;8.25;5.38;;;;;;;;;;4986822;28;20045;-80
2021/07/18 05:09:04;;;;;;;7.18;3.85;;;;;;;;;;5003868;28;20031;-79
2021/07/18 05:11:30;;;;;;;7.47;4.65;;;;;;;;;;5003108;28;20033;-79
2021/07/18 05:13:56;;;;;;;10.77;5.50;;;;;;;;;;4985076;28;20026;-79
2021/07/18 05:16:22;;;;;;;7.60;4.75;;;;;;;;;;5002442;28;20049;-79
2021/07/18 05:18:48;;;;;;;5.75;3.75;;;;;;;;;;4996454;28;20497;-79
2021/07/18 05:21:15;;;;;;;8.25;4.78;;;;;;;;;;4998749;28;20026;-79
2021/07/18 05:23:41;;;;;;;7.55;4.50;;;;;;;;;;4999057;28;20065;-79
2021/07/18 05:26:07;;;;;;;4.50;3.75;;;;;;;;;;5005427;28;20026;-78
2021/07/18 05:28:33;;;;;;;8.93;4.68;;;;;;;;;;5003240;28;20299;-80
2021/07/18 05:30:59;;;;;;;8.23;3.90;;;;;;;;;;5010644;28;20424;-80
2021/07/18 05:33:25;;;;;;;7.40;4.30;;;;;;;;;;5013124;28;20077;-78
2021/07/18 05:35:52;;;;;;;8.10;4.43;;;;;;;;;;5024961;28;20034;-79
2021/07/18 05:38:18;;;;;;;6.90;3.80;;;;;;;;;;4997120;28;20062;-78
2021/07/18 05:40:44;;;;;;;4.93;3.72;;;;;;;;;;5019582;28;20045;-79
2021/07/18 05:43:10;;;;;;;4.68;3.70;;;;;;;;;;5021777;28;20041;-79
2021/07/18 05:45:36;;;;;;;9.55;4.22;;;;;;;;;;5005282;28;20027;-79
2021/07/18 05:48:02;;;;;;;5.50;3.53;;;;;;;;;;4994653;28;20026;-80
2021/07/18 05:50:28;;;;;;;7.72;3.90;;;;;;;;;;4994786;28;20050;-80
2021/07/18 05:52:54;;;;;;;8.23;3.58;;;;;;;;;;4977747;28;20451;-80
2021/07/18 05:55:22;;;;;;;6.65;4.57;;;;;;;;;;4980927;28;20031;-80
2021/07/18 05:57:48;;;;;;;6.68;4.03;;;;;;;;;;5003958;28;20026;-78
2021/07/18 06:00:14;;;;;;;7.75;4.57;;;;;;;;;;5006206;28;20090;-79
2021/07/18 06:02:41;;;;;;;6.68;3.45;;;;;;;;;;5008171;28;20030;-80
2021/07/18 06:05:08;;;;;;;5.00;3.55;;;;;;;;;;5004903;28;20061;-80
2021/07/18 06:07:34;;;;;;;5.57;3.70;;;;;;;;;;5001149;28;20065;-80
2021/07/18 06:10:00;;;;;;;6.72;3.70;;;;;;;;;;4983963;28;20448;-79
2021/07/18 06:12:29;;;;;;;5.47;4.00;;;;;;;;;;5001371;28;20029;-79
2021/07/18 06:14:57;;;;;;;13.02;4.53;;;;;;;;;;5001620;28;20076;-80
2021/07/18 06:17:23;;;;;;;7.10;3.88;;;;;;;;;;5001332;28;20077;-81
2021/07/18 06:19:49;;;;;;;5.45;4.03;;;;;;;;;;4982831;28;20057;-79
2021/07/18 06:22:15;;;;;;;5.88;3.85;;;;;;;;;;5002175;28;20022;-80
2021/07/18 06:24:41;;;;;;;8.00;4.00;;;;;;;;;;5001324;28;20053;-80
2021/07/18 06:27:07;;;;;;;7.20;4.07;;;;;;;;;;5000818;28;20030;-80
2021/07/18 06:29:34;;;;;;;7.70;4.20;;;;;;;;;;4982081;28;20046;-79
2021/07/18 06:32:00;;;;;;;5.95;3.47;;;;;;;;;;5007947;28;20470;-81
2021/07/18 06:34:26;;;;;;;11.20;4.78;;;;;;;;;;5000344;28;20026;-79
2021/07/18 06:36:53;;;;;;;9.63;4.05;;;;;;;;;;4999444;28;20061;-79
2021/07/18 06:39:19;;;;;;;5.43;4.18;;;;;;;;;;4998279;28;20030;-78
2021/07/18 06:41:45;;;;;;;6.05;4.05;;;;;;;;;;5000574;28;20070;-79
2021/07/18 06:44:11;;;;;;;8.32;3.80;;;;;;;;;;5002377;28;20048;-79
2021/07/18 06:46:38;;;;;;;10.50;4.07;;;;;;;;;;5000262;28;20038;-79
2021/07/18 06:49:04;;;;;;;8.20;3.78;;;;;;;;;;4999377;28;20026;-79
2021/07/18 06:51:31;;;;;;;5.80;3.65;;;;;;;;;;4997993;28;20038;-79
2021/07/18 06:53:58;;;;;;;11.02;4.15;;;;;;;;;;4981578;28;20109;-79
2021/07/18 06:56:24;;;;;;;4.03;3.20;;;;;;;;;;4999199;28;20015;-79
2021/07/18 06:58:50;;;;;;;6.55;4.03;;;;;;;;;;4998393;28;20053;-79
2021/07/18 07:01:16;;;;;;;5.70;3.78;;;;;;;;;;4999040;28;20026;-79
2021/07/18 07:03:42;;;;;;;5.13;3.22;;;;;;;;;;4989275;28;20027;-79
2021/07/18 07:06:08;;;;;;;8.18;4.38;;;;;;;;;;4980090;28;20027;-79
2021/07/18 07:08:34;;;;;;;4.35;3.40;;;;;;;;;;4999009;28;20076;-79
2021/07/18 07:11:00;;;;;;;4.93;3.33;;;;;;;;;;4999511;28;20113;-79
2021/07/18 07:13:26;;;;;;;9.38;3.88;;;;;;;;;;4999301;28;20026;-79
2021/07/18 07:15:53;;;;;;;9.27;4.38;;;;;;;;;;4980005;28;20041;-79
2021/07/18 07:18:19;;;;;;;15.30;3.80;;;;;;;;;;4998554;28;20083;-78
2021/07/18 07:20:45;;;;;;;3.90;3.25;;;;;;;;;;4999469;28;20026;-78
2021/07/18 07:23:11;;;;;;;10.18;3.78;;;;;;;;;;4999787;28;20045;-79
2021/07/18 07:25:37;;;;;;;4.18;3.28;;;;;;;;;;4998325;28;20045;-80
2021/07/18 07:28:03;;;;;;;3.63;3.08;;;;;;;;;;4981454;28;20045;-80
2021/07/18 07:30:29;;;;;;;7.78;3.78;;;;;;;;;;4998484;28;20109;-80
2021/07/18 07:32:55;;;;;;;9.85;3.35;;;;;;;;;;5007011;28;20026;-80
2021/07/18 07:35:22;;;;;;;5.47;3.85;;;;;;;;;;5015434;28;20074;-80
2021/07/18 07:37:48;;;;;;;6.50;2.85;;;;;;;;;;5001242;28;20030;-79
2021/07/18 07:40:16;;;;;;;7.60;3.55;;;;;;;;;;4989063;28;20026;-79
2021/07/18 07:42:42;;;;;;;5.97;3.58;;;;;;;;;;5007905;28;20077;-79
2021/07/18 07:45:09;;;;;;;8.55;3.58;;;;;;;;;;5011144;28;20039;-79
2021/07/18 07:47:36;;;;;;;5.22;3.40;;;;;;;;;;5008907;28;20037;-79
2021/07/18 07:50:03;;;;;;;6.20;3.60;;;;;;;;;;4987134;28;20026;-79
2021/07/18 07:52:29;;;;;;;5.93;3.70;;;;;;;;;;4990273;28;20030;-81
2021/07/18 07:54:55;;;;;;;5.05;3.33;;;;;;;;;;5000160;28;20026;-83
2021/07/18 07:57:21;;;;;;;7.03;3.70;;;;;;;;;;5000716;28;20178;-79
2021/07/18 07:59:47;;;;;;;4.43;3.20;;;;;;;;;;5001955;28;20037;-80
2021/07/18 08:02:13;;;;;;;5.22;3.90;;;;;;;;;;5006932;28;20092;-80
2021/07/18 08:04:39;;;;;;;5.03;3.83;;;;;;;;;;5013176;28;20034;-80
2021/07/18 08:07:05;;;;;;;5.65;3.95;;;;;;;;;;4998220;28;20026;-81
2021/07/18 08:09:31;;;;;;;9.20;3.90;;;;;;;;;;4998815;28;20137;-80
2021/07/18 08:11:57;;;;;;;5.90;3.45;;;;;;;;;;4982069;28;20117;-81
2021/07/18 08:14:23;;;;;;;5.30;3.42;;;;;;;;;;5000108;28;20038;-80
2021/07/18 08:16:49;;;;;;;5.78;3.38;;;;;;;;;;4986575;28;20118;-80
2021/07/18 08:19:16;;;;;;;5.97;3.70;;;;;;;;;;5006791;28;20030;-79
2021/07/18 08:21:42;;;;;;;7.68;4.15;;;;;;;;;;5004973;28;20054;-81
2021/07/18 08:24:08;;;;;;;4.18;3.47;;;;;;;;;;4999358;28;20042;-81
2021/07/18 08:26:34;;;;;;;7.38;3.60;;;;;;;;;;4999284;28;20098;-80
2021/07/18 08:29:00;;;;;;;9.60;4.63;;;;;;;;;;4998870;28;20027;-81
2021/07/18 08:31:27;;;;;;;9.02;3.97;;;;;;;;;;5004749;28;20026;-81
2021/07/18 08:33:53;;;;;;;6.32;3.95;;;;;;;;;;4985297;28;20034;-81
2021/07/18 08:36:19;;;;;;;7.55;4.15;;;;;;;;;;5000953;28;20472;-81
2021/07/18 08:38:45;;;;;;;9.00;4.47;;;;;;;;;;4984335;28;20041;-80
2021/07/18 08:41:11;;;;;;;7.13;4.32;;;;;;;;;;5009965;28;20089;-81
2021/07/18 08:43:37;;;;;;;7.32;4.18;;;;;;;;;;5004831;28;20101;-80
2021/07/18 08:46:05;;;;;;;7.75;4.45;;;;;;;;;;4984191;28;20125;-80
2021/07/18 08:48:31;;;;;;;11.07;5.43;;;;;;;;;;4999651;28;20482;-80
2021/07/18 08:50:57;;;;;;;4.35;3.90;;;;;;;;;;4999416;28;20057;-80
2021/07/18 08:53:30;;;;;;;7.40;4.40;;;;;;;;;;4981502;28;20030;-80
2021/07/18 08:55:56;;;;;;;6.75;4.05;;;;;;;;;;4981438;28;20026;-80
2021/07/18 08:58:22;;;;;;;7.40;4.40;;;;;;;;;;4981201;28;20085;-80
2021/07/18 09:00:48;;;;;;;7.57;4.47;;;;;;;;;;4995558;28;20034;-80
2021/07/18 09:03:15;;;;;;;8.25;4.93;;;;;;;;;;5008151;28;20034;-80
2021/07/18 09:05:41;;;;;;;5.43;4.18;;;;;;;;;;4995668;28;20152;-80
2021/07/18 09:08:08;;;;;;;6.85;4.13;;;;;;;;;;4996935;28;20038;-79
2021/07/18 09:10:34;;;;;;;9.02;5.13;;;;;;;;;;4981233;28;20423;-79
2021/07/18 09:13:08;;;;;;;8.27;4.90;;;;;;;;;;4979930;28;20026;-79
2021/07/18 09:15:41;;;;;;;8.20;5.15;;;;;;;;;;4981018;28;20077;-80
2021/07/18 09:18:08;;;;;;;8.82;5.05;;;;;;;;;;4998342;28;20428;-79
2021/07/18 09:20:39;;;;;;;6.75;5.07;;;;;;;;;;4979313;28;20026;-80
2021/07/18 09:23:15;;;;;;;7.43;5.30;;;;;;;;;;5007881;28;20026;-79
2021/07/18 09:25:41;;;;;;;9.57;5.60;;;;;;;;;;4995229;28;20019;-79
2021/07/18 09:28:11;;;;;;;8.15;5.10;;;;;;;;;;5004938;28;20036;-80
2021/07/18 09:30:37;;;;;;;6.97;4.60;;;;;;;;;;5003208;28;20045;-79
2021/07/18 09:33:03;;;;;;;7.68;6.10;;;;;;;;;;5012270;28;20364;-79
2021/07/18 09:35:29;;;;;;;8.90;5.80;;;;;;;;;;5017196;28;20030;-79
2021/07/18 09:37:56;;;;;;;9.43;6.63;;;;;;;;;;4984498;28;20031;-80
2021/07/18 09:40:25;;;;;;;7.95;6.35;;;;;;;;;;5002384;28;20100;-81
2021/07/18 09:42:53;;;;;;;11.52;7.93;;;;;;;;;;5002387;28;20090;-80
2021/07/18 09:45:26;;;;;;;10.05;7.40;;;;;;;;;;4985990;28;20041;-81
2021/07/18 09:47:52;;;;;;;13.32;7.93;;;;;;;;;;5002018;28;20042;-80
2021/07/18 09:50:40;;;;;;;11.27;8.45;;;;;;;;;;5001920;28;20050;-80
2021/07/18 09:53:09;;;;;;;14.75;9.18;;;;;;;;;;4985733;28;20147;-81
2021/07/18 09:55:35;;;;;;;12.73;9.05;;;;;;;;;;5004734;28;20022;-78
2021/07/18 09:58:01;;;;;;;10.25;9.23;;;;;;;;;;5005066;28;20030;-79
2021/07/18 10:00:42;;;;;;;12.65;10.80;;;;;;;;;;4985695;28;20503;-80
2021/07/18 10:03:22;;;;;;;13.90;10.95;;;;;;;;;;5012635;28;20387;-80
2021/07/18 10:06:03;;;;;;;11.02;9.93;;;;;;;;;;5004782;28;20432;-80
2021/07/18 10:08:29;;;;;;;11.93;10.57;;;;;;;;;;5007898;28;20030;-80
2021/07/18 10:10:56;;;;;;;14.77;10.15;;;;;;;;;;5008508;28;20065;-80
2021/07/18 10:13:25;;;;;;;12.32;11.13;;;;;;;;;;4993451;28;20038;-80
2021/07/18 10:15:51;;;;;;;12.82;10.38;;;;;;;;;;5006256;28;20080;-80
2021/07/18 10:18:18;;;;;;;14.05;10.50;;;;;;;;;;5006014;28;20110;-78
2021/07/18 10:20:45;;;;;;;11.98;10.77;;;;;;;;;;4987540;28;20026;-78
2021/07/18 10:23:11;;;;;;;10.88;9.75;;;;;;;;;;5006645;28;20056;-79
2021/07/18 10:25:37;;;;;;;13.93;10.32;;;;;;;;;;4989371;28;20043;-78
2021/07/18 10:28:04;;;;;;;11.48;10.23;;;;;;;;;;5006479;28;20387;-79
2021/07/18 10:30:34;;;;;;;12.00;9.40;;;;;;;;;;5005996;28;20033;-79
2021/07/18 10:33:01;;;;;;;11.82;8.77;;;;;;;;;;5013168;28;20030;-79
2021/07/18 10:35:28;;;;;;;11.13;8.63;;;;;;;;;;5004663;28;20041;-79
2021/07/18 10:37:54;;;;;;;15.27;9.15;;;;;;;;;;4984605;28;20081;-80
2021/07/18 10:40:24;;;;;;;12.15;9.10;;;;;;;;;;5001296;28;20538;-80
2021/07/18 10:42:51;;;;;;;17.27;12.45;;;;;;;;;;5003891;28;20022;-80
2021/07/18 10:45:17;;;;;;;15.52;11.98;;;;;;;;;;5004231;28;20150;-79
2021/07/18 10:47:55;;;;;;;15.02;11.88;;;;;;;;;;4985143;28;20086;-81
2021/07/18 10:50:41;;;;;;;13.60;11.73;;;;;;;;;;4986155;28;20042;-80
2021/07/18 10:53:26;;;;;;;15.38;12.48;;;;;;;;;;5003478;28;20041;-80
2021/07/18 10:55:53;;;;;;;15.10;12.68;;;;;;;;;;4985725;28;20030;-80
2021/07/18 10:58:37;;;;;;;17.60;13.60;;;;;;;;;;5002854;28;20042;-81
2021/07/18 11:01:04;;;;;;;15.23;12.55;;;;;;;;;;4988333;28;20059;-81
2021/07/18 11:03:36;;;;;;;15.43;13.20;;;;;;;;;;5020176;28;20026;-80
2021/07/18 11:06:21;;;;;;;13.25;11.38;;;;;;;;;;5007104;28;20094;-80
2021/07/18 11:09:06;;;;;;;18.95;13.48;;;;;;;;;;4989882;28;20064;-80
2021/07/18 11:11:43;;;;;;;14.38;12.57;;;;;;;;;;5011111;28;20033;-79
2021/07/18 11:14:28;;;;;;;14.63;12.05;;;;;;;;;;5005982;28;20126;-80
2021/07/18 11:16:58;;;;;;;15.50;13.20;;;;;;;;;;5006938;28;20022;-80
2021/07/18 11:19:39;;;;;;;14.95;13.32;;;;;;;;;;5004722;28;20037;-81
2021/07/18 11:22:06;;;;;;;17.37;13.30;;;;;;;;;;4987156;28;20031;-81
2021/07/18 11:24:55;;;;;;;14.70;12.00;;;;;;;;;;4991315;28;20018;-81
2021/07/18 11:27:23;;;;;;;16.17;13.25;;;;;;;;;;5006550;28;20042;-81
2021/07/18 11:29:49;;;;;;;12.48;11.25;;;;;;;;;;4991925;28;20038;-81
2021/07/18 11:32:20;;;;;;;12.70;11.40;;;;;;;;;;5012839;28;20072;-81
2021/07/18 11:34:46;;;;;;;11.70;10.48;;;;;;;;;;5013450;28;20053;-81
2021/07/18 11:37:14;;;;;;;11.45;10.20;;;;;;;;;;5014967;28;20018;-80
2021/07/18 11:39:42;;;;;;;11.25;10.18;;;;;;;;;;5011079;28;20074;-80
2021/07/18 11:42:09;;;;;;;10.35;9.35;;;;;;;;;;5010166;28;20011;-80
2021/07/18 11:44:36;;;;;;;10.43;9.40;;;;;;;;;;4989152;28;20037;-81
2021/07/18 11:47:03;;;;;;;9.85;8.90;;;;;;;;;;5005951;28;20056;-82
2021/07/18 11:49:30;;;;;;;18.52;12.65;;;;;;;;;;5004646;28;20033;-80
2021/07/18 11:51:56;;;;;;;13.57;12.18;;;;;;;;;;4988377;28;20097;-81
2021/07/18 11:54:22;;;;;;;13.02;11.55;;;;;;;;;;5010410;28;20049;-79
2021/07/18 11:56:50;;;;;;;11.88;10.73;;;;;;;;;;5009582;28;20064;-80
2021/07/18 11:59:20;;;;;;;13.18;11.90;;;;;;;;;;4989185;28;20018;-80
2021/07/18 12:01:49;;;;;;;16.60;12.27;;;;;;;;;;4996139;28;20033;-81
2021/07/18 12:04:16;;;;;;;15.15;13.20;;;;;;;;;;5008219;28;20029;-81
2021/07/18 12:06:42;;;;;;;16.73;13.38;;;;;;;;;;5005977;28;20049;-81
2021/07/18 12:09:13;;;;;;;16.17;13.15;;;;;;;;;;5007050;28;20027;-81
2021/07/18 12:11:39;;;;;;;15.25;13.50;;;;;;;;;;5004101;28;20037;-81
2021/07/18 12:14:06;;;;;;;19.17;13.75;;;;;;;;;;5005129;28;20030;-81
2021/07/18 12:16:32;;;;;;;15.27;13.30;;;;;;;;;;4986711;28;20452;-81
2021/07/18 12:18:58;;;;;;;16.55;13.63;;;;;;;;;;5004054;28;20082;-81
2021/07/18 12:21:32;;;;;;;15.43;13.82;;;;;;;;;;5004187;28;20034;-81
2021/07/18 12:24:18;;;;;;;15.02;12.55;;;;;;;;;;5003172;28;20041;-80
2021/07/18 12:26:45;;;;;;;15.70;13.57;;;;;;;;;;4986480;28;20022;-81
2021/07/18 12:29:13;;;;;;;16.95;13.98;;;;;;;;;;5002461;28;20028;-80
2021/07/18 12:31:39;;;;;;;15.07;13.15;;;;;;;;;;5004669;28;20117;-80
2021/07/18 12:34:06;;;;;;;14.90;12.68;;;;;;;;;;4994694;28;20041;-79
2021/07/18 12:36:32;;;;;;;13.20;11.90;;;;;;;;;;5017944;28;20073;-80
2021/07/18 12:39:14;;;;;;;13.10;11.57;;;;;;;;;;5002965;28;20030;-81
2021/07/18 12:41:40;;;;;;;12.68;11.38;;;;;;;;;;5002704;28;20027;-80
2021/07/18 12:44:06;;;;;;;16.05;12.85;;;;;;;;;;5003219;28;20054;-80
2021/07/18 12:46:33;;;;;;;14.85;13.25;;;;;;;;;;5003888;28;20037;-81
2021/07/18 12:49:08;;;;;;;14.27;12.50;;;;;;;;;;5002508;28;20065;-81
2021/07/18 12:51:35;;;;;;;12.90;11.70;;;;;;;;;;5011566;28;20081;-81
2021/07/18 12:54:01;;;;;;;14.82;11.55;;;;;;;;;;5007625;28;20057;-80
2021/07/18 12:56:27;;;;;;;12.60;11.40;;;;;;;;;;5002872;28;20033;-81
2021/07/18 12:58:53;;;;;;;12.68;11.38;;;;;;;;;;5002069;28;20026;-80
2021/07/18 13:01:26;;;;;;;13.50;12.15;;;;;;;;;;5006368;28;20034;-80
2021/07/18 13:04:00;;;;;;;12.43;11.25;;;;;;;;;;5014278;28;20052;-80
2021/07/18 13:06:26;;;;;;;13.70;12.38;;;;;;;;;;4988743;28;20107;-80
2021/07/18 13:08:52;;;;;;;15.88;13.10;;;;;;;;;;4989514;28;20061;-79
2021/07/18 13:11:44;;;;;;;17.05;12.70;;;;;;;;;;4997053;28;20019;-79
2021/07/18 13:14:25;;;;;;;16.70;12.18;;;;;;;;;;5011974;28;20018;-79
2021/07/18 13:17:02;;;;;;;13.45;11.80;;;;;;;;;;4990702;28;20030;-80
2021/07/18 13:19:28;;;;;;;12.85;11.65;;;;;;;;;;5010057;28;20046;-79
2021/07/18 13:21:58;;;;;;;12.65;11.15;;;;;;;;;;5010357;28;20106;-80
2021/07/18 13:24:34;;;;;;;12.45;11.25;;;;;;;;;;5010333;28;20018;-80
2021/07/18 13:27:17;;;;;;;13.43;12.00;;;;;;;;;;5010251;28;20026;-80
2021/07/18 13:29:47;;;;;;;14.13;12.70;;;;;;;;;;4986319;28;20084;-81
2021/07/18 13:32:14;;;;;;;14.13;12.30;;;;;;;;;;4981808;28;20031;-80
2021/07/18 13:34:41;;;;;;;13.43;11.68;;;;;;;;;;4991908;28;20026;-79
2021/07/18 13:37:07;;;;;;;12.68;11.38;;;;;;;;;;4991812;28;20014;-79
2021/07/18 13:39:34;;;;;;;15.73;11.63;;;;;;;;;;4996958;28;20031;-79
2021/07/18 13:42:03;;;;;;;11.70;10.48;;;;;;;;;;4996103;28;20026;-80
2021/07/18 13:44:29;;;;;;;11.70;10.50;;;;;;;;;;4982004;28;20034;-79
2021/07/18 13:46:55;;;;;;;11.60;10.50;;;;;;;;;;4983874;28;20027;-79
2021/07/18 13:49:21;;;;;;;10.93;9.93;;;;;;;;;;4984160;28;20035;-78
2021/07/18 13:51:54;;;;;;;11.82;9.80;;;;;;;;;;4999948;28;20414;-79
2021/07/18 13:54:20;;;;;;;10.85;9.02;;;;;;;;;;5000332;28;20048;-79
2021/07/18 13:56:46;;;;;;;12.52;9.32;;;;;;;;;;4996989;28;20029;-79
2021/07/18 13:59:12;;;;;;;13.40;11.05;;;;;;;;;;5000710;28;20082;-79
2021/07/18 14:01:39;;;;;;;11.25;9.85;;;;;;;;;;5000178;28;20031;-79
2021/07/18 14:04:06;;;;;;;10.65;9.63;;;;;;;;;;5017389;28;20562;-80
2021/07/18 14:06:32;;;;;;;10.57;9.45;;;;;;;;;;5007239;28;20018;-79
2021/07/18 14:08:58;;;;;;;10.68;9.52;;;;;;;;;;5004080;28;20108;-79
2021/07/18 14:11:24;;;;;;;10.57;9.00;;;;;;;;;;5019413;28;20082;-79
2021/07/18 14:13:50;;;;;;;10.00;8.98;;;;;;;;;;4993960;28;20030;-79
2021/07/18 14:16:16;;;;;;;12.90;8.48;;;;;;;;;;5027940;28;20029;-79
2021/07/18 14:18:42;;;;;;;8.90;8.10;;;;;;;;;;5021109;28;20076;-78
2021/07/18 14:21:08;;;;;;;9.13;7.45;;;;;;;;;;5022737;28;20105;-79
2021/07/18 14:23:34;;;;;;;8.52;7.55;;;;;;;;;;5018325;28;20029;-79
2021/07/18 14:26:01;;;;;;;10.27;8.50;;;;;;;;;;4981826;28;20046;-78
2021/07/18 14:28:27;;;;;;;9.30;8.40;;;;;;;;;;5001543;28;20026;-79
2021/07/18 14:30:56;;;;;;;11.23;8.18;;;;;;;;;;5004466;28;20034;-79
2021/07/18 14:33:22;;;;;;;8.48;7.65;;;;;;;;;;5009244;28;20022;-79
2021/07/18 14:35:50;;;;;;;8.82;7.43;;;;;;;;;;4982472;28;20068;-78
2021/07/18 14:38:19;;;;;;;7.32;6.63;;;;;;;;;;5012457;28;20023;-79
2021/07/18 14:40:45;;;;;;;11.57;8.10;;;;;;;;;;5003589;28;20497;-79
2021/07/18 14:43:11;;;;;;;8.57;7.68;;;;;;;;;;5017094;28;20048;-79
2021/07/18 14:45:38;;;;;;;8.77;7.97;;;;;;;;;;5016325;28;20014;-79
2021/07/18 14:48:04;;;;;;;10.50;8.02;;;;;;;;;;4990768;28;20026;-79
2021/07/18 14:50:31;;;;;;;10.90;7.70;;;;;;;;;;5007771;28;20038;-79
2021/07/18 14:52:57;;;;;;;9.70;7.90;;;;;;;;;;5008025;28;20494;-79
2021/07/18 14:55:24;;;;;;;9.05;7.97;;;;;;;;;;5015828;28;20049;-80
2021/07/18 14:57:50;;;;;;;8.40;7.60;;;;;;;;;;5013634;28;20022;-79
2021/07/18 15:00:18;;;;;;;8.57;7.78;;;;;;;;;;5015350;28;20022;-79
2021/07/18 15:02:44;;;;;;;7.90;7.10;;;;;;;;;;5005632;28;20057;-78
2021/07/18 15:05:11;;;;;;;7.43;6.72;;;;;;;;;;5014800;28;20418;-78